createdAt,value
2023-03-04T00:02:20.110Z,3.96
2023-03-04T00:04:49.588Z,3.96
2023-03-04T00:07:20.149Z,3.97
2023-03-04T00:09:49.255Z,3.97
2023-03-04T00:12:19.179Z,3.98
2023-03-04T00:14:52.563Z,3.95
2023-03-04T00:17:25.525Z,3.98
2023-03-04T00:19:57.329Z,3.96
2023-03-04T00:22:26.437Z,3.96
2023-03-04T00:24:57.733Z,3.96
2023-03-04T00:27:27.251Z,3.91
2023-03-04T00:30:01.071Z,3.93
2023-03-04T00:32:30.616Z,3.94
2023-03-04T00:34:58.890Z,3.93
2023-03-04T00:37:27.007Z,3.93
2023-03-04T00:39:55.059Z,3.91
2023-03-04T00:42:23.337Z,3.91
2023-03-04T00:44:52.220Z,3.90
2023-03-04T00:47:21.922Z,3.90
2023-03-04T00:49:49.976Z,3.93
2023-03-04T00:52:18.110Z,3.89
2023-03-04T00:54:46.189Z,3.88
2023-03-04T00:57:14.597Z,3.88
2023-03-04T00:59:43.923Z,3.90
2023-03-04T01:02:12.215Z,3.87
2023-03-04T01:04:41.963Z,3.87
2023-03-04T01:07:10.203Z,3.86
2023-03-04T01:09:38.826Z,3.84
2023-03-04T01:12:07.022Z,3.87
2023-03-04T01:14:35.043Z,3.86
2023-03-04T01:17:03.353Z,3.89
2023-03-04T01:19:31.534Z,3.90
2023-03-04T01:22:02.128Z,3.90
2023-03-04T01:24:30.514Z,3.90
2023-03-04T01:26:58.589Z,3.91
2023-03-04T01:29:28.134Z,3.91
2023-03-04T01:31:58.269Z,3.92
2023-03-04T01:34:26.594Z,3.91
2023-03-04T01:36:54.712Z,3.92
2023-03-04T01:39:24.314Z,3.94
2023-03-04T01:41:52.789Z,3.93
2023-03-04T01:44:21.218Z,3.95
2023-03-04T01:46:50.895Z,3.95
2023-03-04T01:49:19.107Z,3.94
2023-03-04T01:51:49.662Z,3.94
2023-03-04T01:54:17.911Z,3.91
2023-03-04T01:56:49.381Z,3.90
2023-03-04T01:59:20.567Z,3.90
2023-03-04T02:01:49.486Z,3.89
2023-03-04T02:04:18.816Z,3.86
2023-03-04T02:06:47.788Z,3.86
2023-03-04T02:09:16.381Z,3.87
2023-03-04T02:11:45.623Z,3.88
2023-03-04T02:14:16.507Z,3.88
2023-03-04T02:16:45.581Z,3.88
2023-03-04T02:19:15.740Z,3.87
2023-03-04T02:21:43.888Z,3.88
2023-03-04T02:24:16.853Z,3.88
2023-03-04T02:26:47.162Z,3.89
2023-03-04T02:29:16.943Z,3.90
2023-03-04T02:31:45.984Z,3.89
2023-03-04T02:34:15.614Z,3.90
2023-03-04T02:36:44.516Z,3.87
2023-03-04T02:39:14.445Z,3.86
2023-03-04T02:41:44.516Z,3.83
2023-03-04T02:44:18.995Z,3.83
2023-03-04T02:46:47.632Z,3.84
2023-03-04T02:49:15.980Z,3.83
2023-03-04T02:51:44.200Z,3.84
2023-03-04T02:54:16.230Z,3.81
2023-03-04T02:56:48.223Z,3.80
2023-03-04T02:59:18.981Z,3.83
2023-03-04T03:01:47.455Z,3.83
2023-03-04T03:04:15.899Z,3.84
2023-03-04T03:06:46.296Z,3.84
2023-03-04T03:09:14.563Z,3.85
2023-03-04T03:11:43.268Z,3.86
2023-03-04T03:14:11.409Z,3.86
2023-03-04T03:16:41.318Z,3.83
2023-03-04T03:19:09.461Z,3.83
2023-03-04T03:21:38.273Z,3.83
2023-03-04T03:24:06.729Z,3.83
2023-03-04T03:26:35.182Z,3.84
2023-03-04T03:29:03.264Z,3.83
2023-03-04T03:31:31.420Z,3.79
2023-03-04T03:34:01.133Z,3.79
2023-03-04T03:36:29.801Z,3.75
2023-03-04T03:38:58.402Z,3.76
2023-03-04T03:41:26.651Z,3.75
2023-03-04T03:43:54.966Z,3.71
2023-03-04T03:46:22.996Z,3.70
2023-03-04T03:48:51.058Z,3.66
2023-03-04T03:51:20.628Z,3.62
2023-03-04T03:53:48.661Z,3.63
2023-03-04T03:56:16.854Z,3.67
2023-03-04T03:58:44.998Z,3.69
2023-03-04T04:01:13.173Z,3.69
2023-03-04T04:03:41.470Z,3.68
2023-03-04T04:06:09.540Z,3.65
2023-03-04T04:08:39.125Z,3.69
2023-03-04T04:11:07.281Z,3.70
2023-03-04T04:13:36.507Z,3.68
2023-03-04T04:16:06.901Z,3.69
2023-03-04T04:18:35.102Z,3.67
2023-03-04T04:21:03.612Z,3.66
2023-03-04T04:23:31.790Z,3.66
2023-03-04T04:26:01.335Z,3.66
2023-03-04T04:28:29.528Z,3.62
2023-03-04T04:30:57.657Z,3.62
2023-03-04T04:33:25.775Z,3.59
2023-03-04T04:35:54.630Z,3.59
2023-03-04T04:38:22.641Z,3.61
2023-03-04T04:40:50.746Z,3.60
2023-03-04T04:43:20.197Z,3.61
2023-03-04T04:45:48.280Z,3.61
2023-03-04T04:48:16.419Z,3.58
2023-03-04T04:50:44.529Z,3.56
2023-03-04T04:53:13.771Z,3.54
2023-03-04T04:55:41.865Z,3.52
2023-03-04T04:58:09.997Z,3.50
2023-03-04T05:00:39.557Z,3.50
2023-03-04T05:03:07.689Z,3.46
2023-03-04T05:05:36.117Z,3.47
2023-03-04T05:08:04.140Z,3.46
2023-03-04T05:10:32.277Z,3.46
2023-03-04T05:13:00.414Z,3.44
2023-03-04T05:15:28.655Z,3.44
2023-03-04T05:17:58.553Z,3.46
2023-03-04T05:20:27.302Z,3.45
2023-03-04T05:22:55.427Z,3.40
2023-03-04T05:25:23.594Z,3.44
2023-03-04T05:27:51.521Z,3.44
2023-03-04T05:30:19.872Z,3.44
2023-03-04T05:32:48.197Z,3.46
2023-03-04T05:35:17.793Z,3.44
2023-03-04T05:37:45.961Z,3.43
2023-03-04T05:40:14.545Z,3.46
2023-03-04T05:42:42.745Z,3.49
2023-03-04T05:45:11.096Z,3.45
2023-03-04T05:47:39.339Z,3.45
2023-03-04T05:50:08.214Z,3.44
2023-03-04T05:52:37.775Z,3.46
2023-03-04T05:55:06.546Z,3.46
2023-03-04T05:57:34.664Z,3.45
2023-03-04T06:00:02.788Z,3.48
2023-03-04T06:02:40.905Z,3.45
2023-03-04T06:05:10.157Z,3.43
2023-03-04T06:07:39.790Z,3.34
2023-03-04T06:10:08.485Z,3.37
2023-03-04T06:12:36.693Z,3.32
2023-03-04T06:15:06.196Z,3.34
2023-03-04T06:17:34.546Z,3.37
2023-03-04T06:20:02.954Z,3.36
2023-03-04T06:22:31.032Z,3.34
2023-03-04T06:25:00.561Z,3.35
2023-03-04T06:27:29.024Z,3.35
2023-03-04T06:29:57.313Z,3.33
2023-03-04T06:32:25.813Z,3.37
2023-03-04T06:34:53.867Z,3.33
2023-03-04T06:37:21.937Z,3.31
2023-03-04T06:39:50.380Z,3.33
2023-03-04T06:42:20.110Z,3.32
2023-03-04T06:44:49.597Z,3.33
2023-03-04T06:47:18.946Z,3.33
2023-03-04T06:49:47.234Z,3.32
2023-03-04T06:52:15.432Z,3.30
2023-03-04T06:54:43.730Z,3.31
2023-03-04T06:57:11.829Z,3.31
2023-03-04T06:59:41.642Z,3.31
2023-03-04T07:02:11.774Z,3.29
2023-03-04T07:04:40.261Z,3.23
2023-03-04T07:07:08.915Z,3.29
2023-03-04T07:09:37.018Z,3.29
2023-03-04T07:12:05.722Z,3.26
2023-03-04T07:14:33.862Z,3.27
2023-03-04T07:17:03.498Z,3.26
2023-03-04T07:19:32.225Z,3.27
2023-03-04T07:22:00.358Z,3.22
2023-03-04T07:24:29.145Z,3.28
2023-03-04T07:26:57.198Z,3.32
2023-03-04T07:29:25.368Z,3.29
2023-03-04T07:31:54.021Z,3.25
2023-03-04T07:34:23.650Z,3.29
2023-03-04T07:36:51.768Z,3.32
2023-03-04T07:39:19.871Z,3.32
2023-03-04T07:41:48.184Z,3.32
2023-03-04T07:44:16.443Z,3.29
2023-03-04T07:46:44.576Z,3.31
2023-03-04T07:49:13.193Z,3.26
2023-03-04T07:51:42.896Z,3.24
2023-03-04T07:54:11.570Z,3.29
2023-03-04T07:56:39.981Z,3.32
2023-03-04T07:59:08.462Z,3.33
2023-03-04T08:01:37.496Z,3.28
2023-03-04T08:04:06.772Z,3.31
2023-03-04T08:06:35.147Z,3.35
2023-03-04T08:09:05.818Z,3.37
2023-03-04T08:11:34.448Z,3.38
2023-03-04T08:14:03.022Z,3.37
2023-03-04T08:16:31.694Z,3.35
2023-03-04T08:19:01.875Z,3.37
2023-03-04T08:21:30.254Z,3.37
2023-03-04T08:23:59.387Z,3.39
2023-03-04T08:26:29.897Z,3.38
2023-03-04T08:28:58.389Z,3.41
2023-03-04T08:31:26.614Z,3.44
2023-03-04T08:33:55.330Z,3.46
2023-03-04T08:36:23.393Z,3.50
2023-03-04T08:38:51.855Z,3.52
2023-03-04T08:41:20.566Z,3.48
2023-03-04T08:43:50.218Z,3.51
2023-03-04T08:46:18.571Z,3.52
2023-03-04T08:48:46.797Z,3.55
2023-03-04T08:51:17.118Z,3.57
2023-03-04T08:53:45.382Z,3.56
2023-03-04T08:56:17.073Z,3.59
2023-03-04T08:58:45.474Z,3.61
2023-03-04T09:01:15.600Z,3.60
2023-03-04T09:03:44.249Z,3.69
2023-03-04T09:06:14.900Z,3.70
2023-03-04T09:08:43.308Z,3.73
2023-03-04T09:11:11.799Z,3.72
2023-03-04T09:13:40.118Z,3.77
2023-03-04T09:16:10.714Z,3.80
2023-03-04T09:18:40.625Z,3.79
2023-03-04T09:21:09.550Z,3.82
2023-03-04T09:23:38.434Z,3.82
2023-03-04T09:26:15.242Z,3.85
2023-03-04T09:28:43.577Z,3.91
2023-03-04T09:31:14.820Z,3.92
2023-03-04T09:33:44.503Z,3.92
2023-03-04T09:36:13.383Z,3.86
2023-03-04T09:38:42.175Z,3.94
2023-03-04T09:41:11.279Z,3.93
2023-03-04T09:43:40.877Z,3.97
2023-03-04T09:46:11.700Z,3.96
2023-03-04T09:48:44.893Z,3.98
2023-03-04T09:51:20.476Z,4.04
2023-03-04T09:53:51.176Z,4.07
2023-03-04T09:56:19.220Z,4.08
2023-03-04T09:58:52.706Z,4.13
2023-03-04T10:01:24.073Z,4.19
2023-03-04T10:03:54.560Z,4.23
2023-03-04T10:06:25.041Z,4.23
2023-03-04T10:08:56.785Z,4.23
2023-03-04T10:11:27.495Z,4.30
2023-03-04T10:13:58.886Z,4.28
2023-03-04T10:16:30.813Z,4.33
2023-03-04T10:19:03.454Z,4.39
2023-03-04T10:21:34.486Z,4.44
2023-03-04T10:24:04.091Z,4.44
2023-03-04T10:26:33.692Z,4.47
2023-03-04T10:29:07.086Z,4.43
2023-03-04T10:31:36.818Z,4.51
2023-03-04T10:34:05.499Z,4.47
2023-03-04T10:36:51.964Z,4.51
2023-03-04T10:39:23.496Z,4.57
2023-03-04T10:42:00.215Z,4.58
2023-03-04T10:44:28.876Z,4.62
2023-03-04T10:46:58.268Z,4.66
2023-03-04T10:49:27.022Z,4.68
2023-03-04T10:51:57.643Z,4.65
2023-03-04T10:54:29.200Z,4.72
2023-03-04T10:57:00.327Z,4.71
2023-03-04T10:59:33.126Z,4.81
2023-03-04T11:02:02.265Z,4.82
2023-03-04T11:04:35.359Z,4.85
2023-03-04T11:07:03.861Z,4.93
2023-03-04T11:09:33.679Z,5.04
2023-03-04T11:12:03.147Z,5.13
2023-03-04T11:14:35.990Z,5.16
2023-03-04T11:17:17.003Z,5.15
2023-03-04T11:19:48.327Z,5.23
2023-03-04T11:22:17.548Z,5.22
2023-03-04T11:24:49.301Z,5.16
2023-03-04T11:27:21.486Z,5.19
2023-03-04T11:29:53.602Z,5.25
2023-03-04T11:32:23.939Z,5.30
2023-03-04T11:34:54.392Z,5.35
2023-03-04T11:37:24.163Z,5.53
2023-03-04T11:39:56.332Z,5.60
2023-03-04T11:42:33.100Z,5.71
2023-03-04T11:45:01.269Z,5.77
2023-03-04T11:47:40.663Z,5.79
2023-03-04T11:50:20.966Z,5.79
2023-03-04T11:53:00.608Z,5.87
2023-03-04T11:55:35.846Z,5.85
2023-03-04T11:58:15.078Z,5.86
2023-03-04T12:00:47.804Z,5.92
2023-03-04T12:03:23.759Z,5.96
2023-03-04T12:05:56.455Z,6.01
2023-03-04T12:08:44.634Z,6.10
2023-03-04T12:11:19.429Z,6.11
2023-03-04T12:13:53.852Z,6.13
2023-03-04T12:16:28.251Z,5.98
2023-03-04T12:19:04.874Z,5.94
2023-03-04T12:21:43.161Z,6.02
2023-03-04T12:24:25.618Z,6.04
2023-03-04T12:26:56.670Z,6.01
2023-03-04T12:29:31.288Z,6.12
2023-03-04T12:32:04.858Z,6.16
2023-03-04T12:34:54.411Z,6.28
2023-03-04T12:37:44.221Z,6.40
2023-03-04T12:40:25.186Z,6.54
2023-03-04T12:43:02.228Z,6.56
2023-03-04T12:45:33.609Z,6.66
2023-03-04T12:48:05.256Z,6.52
2023-03-04T12:50:38.672Z,6.69
2023-03-04T12:53:13.962Z,6.71
2023-03-04T12:55:44.109Z,6.66
2023-03-04T12:58:16.766Z,6.66
2023-03-04T13:00:50.465Z,6.47
2023-03-04T13:03:22.585Z,6.54
2023-03-04T13:05:58.375Z,6.47
2023-03-04T13:08:31.319Z,6.55
2023-03-04T13:11:02.672Z,6.59
2023-03-04T13:13:38.010Z,6.56
2023-03-04T13:16:07.263Z,6.61
2023-03-04T13:18:36.778Z,6.66
2023-03-04T13:21:23.245Z,6.65
2023-03-04T13:23:52.464Z,6.67
2023-03-04T13:26:30.979Z,6.69
2023-03-04T13:29:29.377Z,6.60
2023-03-04T13:32:02.909Z,6.60
2023-03-04T13:34:46.138Z,6.60
2023-03-04T13:37:36.544Z,6.55
2023-03-04T13:40:28.368Z,6.62
2023-03-04T13:43:16.282Z,6.65
2023-03-04T13:45:45.280Z,6.59
2023-03-04T13:48:25.380Z,6.59
2023-03-04T13:50:54.228Z,6.64
2023-03-04T13:53:31.672Z,6.69
2023-03-04T13:56:08.498Z,6.72
2023-03-04T13:58:37.284Z,6.73
2023-03-04T14:01:07.290Z,6.82
2023-03-04T14:03:36.933Z,6.85
2023-03-04T14:06:12.474Z,6.86
2023-03-04T14:08:40.703Z,6.86
2023-03-04T14:11:13.189Z,6.79
2023-03-04T14:13:41.507Z,6.83
2023-03-04T14:16:10.476Z,6.82
2023-03-04T14:18:40.222Z,6.75
2023-03-04T14:21:08.406Z,6.73
2023-03-04T14:23:37.293Z,6.68
2023-03-04T14:26:10.797Z,6.72
2023-03-04T14:28:46.483Z,6.72
2023-03-04T14:31:19.418Z,6.66
2023-03-04T14:33:50.417Z,6.68
2023-03-04T14:36:20.952Z,6.74
2023-03-04T14:38:54.117Z,6.75
2023-03-04T14:41:24.233Z,6.77
2023-03-04T14:43:55.982Z,6.76
2023-03-04T14:46:26.766Z,6.79
2023-03-04T14:48:57.858Z,6.74
2023-03-04T14:51:33.937Z,6.72
2023-03-04T14:54:02.105Z,6.75
2023-03-04T14:56:30.760Z,6.73
2023-03-04T14:59:00.166Z,6.58
2023-03-04T15:01:32.712Z,6.38
2023-03-04T15:04:03.876Z,6.23
2023-03-04T15:06:33.475Z,6.14
2023-03-04T15:09:03.625Z,6.03
2023-03-04T15:11:33.986Z,5.90
2023-03-04T15:14:02.855Z,5.88
2023-03-04T15:16:51.052Z,5.87
2023-03-04T15:19:27.450Z,5.83
2023-03-04T15:22:04.922Z,5.76
2023-03-04T15:24:33.164Z,5.77
2023-03-04T15:27:01.216Z,5.75
2023-03-04T15:29:30.418Z,5.79
2023-03-04T15:31:58.583Z,5.79
2023-03-04T15:34:28.496Z,5.73
2023-03-04T15:36:58.291Z,5.68
2023-03-04T15:39:27.754Z,5.74
2023-03-04T15:41:56.043Z,5.72
2023-03-04T15:44:24.307Z,5.69
2023-03-04T15:46:52.453Z,5.76
2023-03-04T15:49:20.729Z,5.81
2023-03-04T15:51:51.014Z,5.92
2023-03-04T15:54:19.096Z,5.97
2023-03-04T15:56:47.218Z,5.93
2023-03-04T15:59:17.093Z,6.00
2023-03-04T16:01:46.738Z,6.06
2023-03-04T16:04:16.945Z,6.03
2023-03-04T16:06:45.589Z,5.99
2023-03-04T16:09:17.072Z,5.96
2023-03-04T16:11:47.667Z,5.97
2023-03-04T16:14:16.903Z,5.96
2023-03-04T16:16:47.144Z,5.93
2023-03-04T16:19:16.206Z,5.91
2023-03-04T16:21:44.294Z,5.88
2023-03-04T16:24:17.584Z,5.84
2023-03-04T16:26:45.918Z,5.74
2023-03-04T16:29:14.178Z,5.72
2023-03-04T16:31:42.455Z,5.71
2023-03-04T16:34:10.791Z,5.67
2023-03-04T16:36:38.983Z,5.56
2023-03-04T16:39:09.508Z,5.57
2023-03-04T16:41:39.112Z,5.53
2023-03-04T16:44:09.260Z,5.54
2023-03-04T16:46:37.516Z,5.46
2023-03-04T16:49:05.787Z,5.47
2023-03-04T16:51:35.619Z,5.48
2023-03-04T16:54:03.938Z,5.47
2023-03-04T16:56:32.071Z,5.44
2023-03-04T16:59:01.681Z,5.40
2023-03-04T17:01:30.331Z,5.32
2023-03-04T17:03:58.390Z,5.34
2023-03-04T17:06:28.067Z,5.26
2023-03-04T17:08:56.158Z,5.22
2023-03-04T17:11:25.070Z,5.18
2023-03-04T17:13:53.471Z,5.18
2023-03-04T17:16:23.055Z,5.15
2023-03-04T17:18:51.291Z,5.15
2023-03-04T17:21:20.143Z,5.12
2023-03-04T17:23:48.222Z,5.05
2023-03-04T17:26:16.871Z,4.95
2023-03-04T17:28:45.042Z,4.80
2023-03-04T17:31:13.782Z,4.76
2023-03-04T17:33:43.929Z,4.77
2023-03-04T17:36:12.876Z,4.72
2023-03-04T17:38:41.149Z,4.74
2023-03-04T17:41:10.066Z,4.67
2023-03-04T17:43:38.482Z,4.57
2023-03-04T17:46:07.335Z,4.55
2023-03-04T17:48:35.789Z,4.54
2023-03-04T17:51:05.417Z,4.44
2023-03-04T17:53:33.646Z,4.41
2023-03-04T17:56:03.117Z,4.37
2023-03-04T17:58:32.456Z,4.31
2023-03-04T18:01:05.925Z,4.29
2023-03-04T18:03:34.363Z,4.22
2023-03-04T18:06:02.548Z,4.18
2023-03-04T18:08:32.110Z,4.12
2023-03-04T18:11:00.144Z,4.06
2023-03-04T18:13:28.395Z,4.03
2023-03-04T18:15:56.877Z,4.02
2023-03-04T18:18:25.206Z,3.93
2023-03-04T18:20:58.215Z,3.91
2023-03-04T18:23:26.815Z,3.84
2023-03-04T18:25:56.538Z,3.80
2023-03-04T18:28:25.155Z,3.81
2023-03-04T18:30:53.635Z,3.76
2023-03-04T18:33:22.312Z,3.78
2023-03-04T18:35:50.457Z,3.73
2023-03-04T18:38:18.900Z,3.71
2023-03-04T18:40:46.916Z,3.70
2023-03-04T18:43:16.914Z,3.68
2023-03-04T18:45:46.454Z,3.62
2023-03-04T18:48:14.666Z,3.55
2023-03-04T18:50:43.162Z,3.58
2023-03-04T18:53:11.832Z,3.54
2023-03-04T18:55:39.937Z,3.48
2023-03-04T18:58:08.046Z,3.43
2023-03-04T19:00:37.818Z,3.41
2023-03-04T19:03:07.594Z,3.42
2023-03-04T19:05:36.189Z,3.39
2023-03-04T19:08:05.126Z,3.33
2023-03-04T19:10:33.521Z,3.28
2023-03-04T19:13:02.244Z,3.27
2023-03-04T19:15:30.604Z,3.26
2023-03-04T19:18:00.663Z,3.32
2023-03-04T19:20:28.753Z,3.29
2023-03-04T19:22:57.080Z,3.31
2023-03-04T19:25:25.089Z,3.27
2023-03-04T19:27:55.457Z,3.21
2023-03-04T19:30:23.717Z,3.18
2023-03-04T19:32:51.905Z,3.26
2023-03-04T19:35:21.665Z,3.25
2023-03-04T19:37:49.757Z,3.25
2023-03-04T19:40:17.906Z,3.23
2023-03-04T19:42:46.229Z,3.26
2023-03-04T19:45:14.672Z,3.28
2023-03-04T19:47:42.796Z,3.29
2023-03-04T19:50:12.166Z,3.25
2023-03-04T19:52:41.729Z,3.28
2023-03-04T19:55:10.400Z,3.23
2023-03-04T19:57:38.569Z,3.25
2023-03-04T20:00:07.331Z,3.24
2023-03-04T20:02:35.610Z,3.15
2023-03-04T20:05:03.747Z,3.18
2023-03-04T20:07:32.172Z,3.19
2023-03-04T20:10:01.733Z,3.16
2023-03-04T20:12:31.389Z,3.16
2023-03-04T20:14:59.521Z,3.17
2023-03-04T20:17:27.651Z,3.16
2023-03-04T20:19:55.778Z,3.16
2023-03-04T20:22:23.769Z,3.17
2023-03-04T20:24:53.790Z,3.13
2023-03-04T20:27:23.530Z,3.19
2023-03-04T20:29:51.907Z,3.20
2023-03-04T20:32:19.964Z,3.20
2023-03-04T20:34:49.597Z,3.16
2023-03-04T20:37:17.809Z,3.17
2023-03-04T20:39:46.661Z,3.18
2023-03-04T20:42:18.445Z,3.19
2023-03-04T20:44:47.978Z,3.14
2023-03-04T20:47:16.106Z,3.16
2023-03-04T20:49:44.774Z,3.15
2023-03-04T20:52:12.826Z,3.14
2023-03-04T20:54:40.950Z,3.09
2023-03-04T20:57:10.793Z,3.07
2023-03-04T20:59:39.673Z,3.04
2023-03-04T21:02:10.177Z,3.05
2023-03-04T21:04:38.523Z,3.02
2023-03-04T21:07:06.670Z,3.01
2023-03-04T21:09:36.516Z,2.98
2023-03-04T21:12:06.511Z,2.91
2023-03-04T21:14:36.796Z,2.89
2023-03-04T21:17:06.494Z,2.91
2023-03-04T21:19:37.804Z,2.88
2023-03-04T21:22:06.109Z,2.90
2023-03-04T21:24:35.189Z,2.92
2023-03-04T21:27:04.679Z,2.88
2023-03-04T21:29:33.428Z,2.90
2023-03-04T21:32:13.303Z,2.87
2023-03-04T21:34:52.983Z,2.92
2023-03-04T21:37:21.484Z,2.94
2023-03-04T21:39:49.644Z,2.98
2023-03-04T21:42:17.817Z,2.99
2023-03-04T21:44:49.722Z,2.95
2023-03-04T21:47:18.391Z,2.96
2023-03-04T21:49:46.742Z,2.93
2023-03-04T21:52:16.404Z,2.89
2023-03-04T21:54:44.773Z,2.85
2023-03-04T21:57:13.659Z,2.80
2023-03-04T21:59:41.880Z,2.80
2023-03-04T22:02:14.962Z,2.77
2023-03-04T22:04:43.085Z,2.80
2023-03-04T22:07:11.407Z,2.81
2023-03-04T22:09:41.187Z,2.83
2023-03-04T22:12:09.451Z,2.85
2023-03-04T22:14:37.744Z,2.85
2023-03-04T22:17:05.915Z,2.87
2023-03-04T22:19:34.323Z,2.88
2023-03-04T22:22:02.634Z,2.88
2023-03-04T22:24:30.733Z,2.90
2023-03-04T22:27:00.674Z,2.91
2023-03-04T22:29:28.801Z,2.87
2023-03-04T22:31:57.123Z,2.90
2023-03-04T22:34:25.572Z,2.90
2023-03-04T22:36:53.752Z,2.91
2023-03-04T22:39:23.255Z,2.91
2023-03-04T22:41:51.625Z,2.91
2023-03-04T22:44:21.212Z,2.91
2023-03-04T22:46:49.455Z,2.88
2023-03-04T22:49:17.653Z,2.76
2023-03-04T22:51:46.261Z,2.77
2023-03-04T22:54:14.512Z,2.79
2023-03-04T22:56:42.630Z,2.75
2023-03-04T22:59:10.733Z,2.77
2023-03-04T23:01:40.212Z,2.78
2023-03-04T23:04:08.556Z,2.78
2023-03-04T23:06:37.863Z,2.79
2023-03-04T23:09:06.287Z,2.78
2023-03-04T23:11:36.613Z,2.79
2023-03-04T23:14:07.148Z,2.80
2023-03-04T23:16:37.474Z,2.81
2023-03-04T23:19:07.573Z,2.82
2023-03-04T23:21:36.617Z,2.82
2023-03-04T23:24:06.001Z,2.80
2023-03-04T23:26:35.216Z,2.79
2023-03-04T23:29:04.251Z,2.80
2023-03-04T23:31:32.774Z,2.77
2023-03-04T23:34:01.685Z,2.79
2023-03-04T23:36:32.585Z,2.80
2023-03-04T23:39:01.476Z,2.79
2023-03-04T23:41:30.741Z,2.80
2023-03-04T23:43:59.599Z,2.78
2023-03-04T23:46:28.647Z,2.78
2023-03-04T23:48:57.398Z,2.78
2023-03-04T23:51:26.848Z,2.74
2023-03-04T23:53:57.004Z,2.69
2023-03-04T23:56:26.537Z,2.71
2023-03-04T23:58:55.595Z,2.70
